Time;durP1;ratioP1;P1;durP2;ratioP2;P2;SDS_P1;SDS_P2;PMS_P1;PMS_P2;Temp;Humidity;BMP_temperature;BMP_pressure;BME280_temperature;BME280_humidity;BME280_pressure;Samples;Min_cycle;Max_cycle;Signal;HPM_P1;HPM_P2
2024/01/03 00:01:29;;;;;;;5.80;3.17;;;;;;;-145.63;100.00;61273.97;5070574;28;20092;-68
2024/01/03 00:03:55;;;;;;;9.30;2.97;;;;;;;-145.63;100.00;61273.97;5074730;28;20344;-69
2024/01/03 00:06:21;;;;;;;5.85;3.20;;;;;;;-145.63;100.00;61273.97;5079979;28;20031;-68
2024/01/03 00:08:47;;;;;;;4.35;3.28;;;;;;;-145.63;100.00;61273.97;5085370;28;20367;-70
2024/01/03 00:11:19;;;;;;;6.68;3.47;;;;;;;-145.63;100.00;61273.97;5084786;28;20012;-69
2024/01/03 00:14:05;;;;;;;4.30;3.08;;;;;;;-145.63;100.00;61273.97;5084697;28;20328;-68
2024/01/03 00:16:33;;;;;;;6.65;3.28;;;;;;;-145.63;100.00;61273.97;5070033;28;20052;-69
2024/01/03 00:18:59;;;;;;;8.35;3.22;;;;;;;-145.63;100.00;61273.97;5064616;28;20021;-68
2024/01/03 00:21:27;;;;;;;6.90;3.40;;;;;;;-145.63;100.00;61273.97;5069785;28;20029;-68
2024/01/03 00:23:58;;;;;;;7.45;3.38;;;;;;;-145.63;100.00;61273.97;5084718;28;20020;-68
2024/01/03 00:26:26;;;;;;;5.82;3.03;;;;;;;-145.63;100.00;61273.97;5084970;28;20032;-69
2024/01/03 00:28:52;;;;;;;6.30;2.58;;;;;;;-145.63;100.00;61273.97;5103079;28;20020;-68
2024/01/03 00:31:32;;;;;;;4.03;2.67;;;;;;;-145.63;100.00;61273.97;5091135;28;20021;-69
2024/01/03 00:33:58;;;;;;;;;;;;;;;-145.63;100.00;61273.97;5074850;28;20025;-69
2024/01/03 00:36:24;;;;;;;5.03;2.70;;;;;;;-145.63;100.00;61273.97;5068857;28;19951;-70
2024/01/03 00:38:49;;;;;;;7.35;3.15;;;;;;;-145.63;100.00;61273.97;5083585;28;20221;-69
2024/01/03 00:41:15;;;;;;;6.10;2.88;;;;;;;-145.63;100.00;61273.97;5063823;28;20070;-69
2024/01/03 00:43:40;;;;;;;6.53;3.38;;;;;;;-145.63;100.00;61273.97;5078936;28;20047;-68
2024/01/03 00:46:08;;;;;;;6.78;3.63;;;;;;;-145.63;100.00;61273.97;5073056;28;20025;-69
2024/01/03 00:48:34;;;;;;;5.47;2.53;;;;;;;-145.63;100.00;61273.97;5069449;28;20066;-69
2024/01/03 00:51:02;;;;;;;5.35;2.78;;;;;;;-145.63;100.00;61273.97;5080691;28;20285;-69
2024/01/03 00:53:28;;;;;;;6.05;2.97;;;;;;;-145.63;100.00;61273.97;5063556;28;20079;-68
2024/01/03 00:55:54;;;;;;;5.20;2.72;;;;;;;-145.63;100.00;61273.97;5080894;28;20012;-68
2024/01/03 00:58:20;;;;;;;6.18;2.80;;;;;;;-145.63;100.00;61273.97;5083813;28;20028;-69
2024/01/03 01:00:47;;;;;;;8.18;2.80;;;;;;;-145.63;100.00;61273.97;5075695;28;20025;-68
2024/01/03 01:03:12;;;;;;;7.55;2.85;;;;;;;-145.63;100.00;61273.97;5066400;28;20020;-68
2024/01/03 01:05:39;;;;;;;5.75;2.83;;;;;;;-145.63;100.00;61273.97;5083224;28;20538;-69
2024/01/03 01:08:05;;;;;;;4.10;2.60;;;;;;;-145.63;100.00;61273.97;5078967;28;20021;-67
2024/01/03 01:10:31;;;;;;;6.53;3.38;;;;;;;-145.63;100.00;61273.97;5082885;28;20017;-69
2024/01/03 01:12:57;;;;;;;5.53;3.08;;;;;;;-145.63;100.00;61273.97;5082201;28;20024;-69
2024/01/03 01:15:23;;;;;;;5.82;2.88;;;;;;;-145.63;100.00;61273.97;5078612;28;20074;-67
2024/01/03 01:17:48;;;;;;;4.97;3.08;;;;;;;-145.63;100.00;61273.97;5063310;28;20514;-69
2024/01/03 01:20:14;;;;;;;5.05;2.60;;;;;;;-145.63;100.00;61273.97;5103192;28;20027;-68
2024/01/03 01:22:40;;;;;;;3.83;2.25;;;;;;;-145.63;100.00;61273.97;5070010;28;20033;-69
2024/01/03 01:25:06;;;;;;;5.03;2.85;;;;;;;-145.63;100.00;61273.97;5072706;28;20025;-68
2024/01/03 01:27:32;;;;;;;6.25;3.25;;;;;;;-145.63;100.00;61273.97;5068548;28;20020;-69
2024/01/03 01:29:58;;;;;;;7.78;2.90;;;;;;;-145.63;100.00;61273.97;5082049;28;20062;-67
2024/01/03 01:32:23;;;;;;;6.93;2.97;;;;;;;-145.63;100.00;61273.97;5062917;28;20028;-68
2024/01/03 01:34:49;;;;;;;5.97;3.00;;;;;;;-145.63;100.00;61273.97;5095378;28;20043;-69
2024/01/03 01:37:14;;;;;;;6.03;2.78;;;;;;;-145.63;100.00;61273.97;5103121;28;20066;-68
2024/01/03 01:39:40;;;;;;;7.05;2.63;;;;;;;-145.63;100.00;61273.97;5077721;28;20059;-68
2024/01/03 01:42:06;;;;;;;5.72;3.17;;;;;;;-145.63;100.00;61273.97;5085397;28;20016;-70
2024/01/03 01:44:31;;;;;;;5.68;2.67;;;;;;;-145.63;100.00;61273.97;5103087;28;20023;-68
2024/01/03 01:46:58;;;;;;;3.63;2.47;;;;;;;-145.63;100.00;61273.97;5085846;28;20024;-69
2024/01/03 01:49:26;;;;;;;4.50;2.90;;;;;;;-145.63;100.00;61273.97;5071753;28;20224;-69
2024/01/03 01:51:52;;;;;;;6.72;2.72;;;;;;;-145.63;100.00;61273.97;5082775;28;20031;-69
2024/01/03 01:54:19;;;;;;;6.85;2.65;;;;;;;-145.63;100.00;61273.97;5079484;28;20017;-70
2024/01/03 01:56:47;;;;;;;7.15;2.65;;;;;;;-145.63;100.00;61273.97;5063168;28;20031;-69
2024/01/03 01:59:14;;;;;;;5.65;2.97;;;;;;;-145.63;100.00;61273.97;5061428;28;20225;-68
2024/01/03 02:01:41;;;;;;;4.97;2.60;;;;;;;-145.63;100.00;61273.97;5063172;28;20032;-67
2024/01/03 02:04:08;;;;;;;4.60;2.40;;;;;;;-145.63;100.00;61273.97;5062721;28;20021;-67
2024/01/03 02:06:35;;;;;;;7.63;2.85;;;;;;;-145.63;100.00;61273.97;5067986;28;20198;-69
2024/01/03 02:09:00;;;;;;;3.35;2.47;;;;;;;-145.63;100.00;61273.97;5082817;28;20031;-68
2024/01/03 02:11:26;;;;;;;6.80;3.00;;;;;;;-145.63;100.00;61273.97;5064584;28;20028;-66
2024/01/03 02:13:52;;;;;;;5.45;2.45;;;;;;;-145.63;100.00;61273.97;5082703;28;20043;-69
2024/01/03 02:16:18;;;;;;;4.28;2.45;;;;;;;-145.63;100.00;61273.97;5070676;28;20266;-68
2024/01/03 02:18:44;;;;;;;4.13;2.50;;;;;;;-145.63;100.00;61273.97;5069312;28;20016;-68
2024/01/03 02:21:30;;;;;;;5.65;2.88;;;;;;;-145.63;100.00;61273.97;5076672;28;20082;-69
2024/01/03 02:23:56;;;;;;;4.93;2.80;;;;;;;-145.63;100.00;61273.97;5062619;28;20088;-69
2024/01/03 02:26:22;;;;;;;6.78;3.13;;;;;;;-145.63;100.00;61273.97;5064725;28;20028;-68
2024/01/03 02:28:47;;;;;;;5.93;2.75;;;;;;;-145.63;100.00;61273.97;5066874;28;20037;-69
2024/01/03 02:31:13;;;;;;;8.98;3.72;;;;;;;-145.63;100.00;61273.97;5072987;28;20029;-68
2024/01/03 02:33:38;;;;;;;6.03;3.00;;;;;;;-145.63;100.00;61273.97;5076184;28;20455;-68
2024/01/03 02:36:05;;;;;;;5.97;3.38;;;;;;;-145.63;100.00;61273.97;5063372;28;20298;-68
2024/01/03 02:38:30;;;;;;;5.55;2.85;;;;;;;-145.63;100.00;61273.97;5082164;28;20031;-69
2024/01/03 02:40:56;;;;;;;4.43;2.85;;;;;;;-145.63;100.00;61273.97;5065469;28;20029;-68
2024/01/03 02:43:21;;;;;;;4.88;2.65;;;;;;;-145.63;100.00;61273.97;5073889;28;20083;-69
2024/01/03 02:45:48;;;;;;;5.15;2.83;;;;;;;-145.63;100.00;61273.97;5075042;28;20072;-67
2024/01/03 02:48:14;;;;;;;4.63;2.40;;;;;;;-145.63;100.00;61273.97;5064274;28;20301;-68
2024/01/03 02:50:44;;;;;;;8.23;2.95;;;;;;;-145.63;100.00;61273.97;5081848;28;20040;-69
2024/01/03 02:53:10;;;;;;;6.05;3.08;;;;;;;-145.63;100.00;61273.97;5065558;28;20038;-69
2024/01/03 02:55:36;;;;;;;4.93;2.97;;;;;;;-145.63;100.00;61273.97;5085845;28;20051;-68
2024/01/03 02:58:02;;;;;;;5.15;2.58;;;;;;;-145.63;100.00;61273.97;5077026;28;20290;-69
2024/01/03 03:00:28;;;;;;;5.03;2.85;;;;;;;-145.63;100.00;61273.97;5065781;28;20021;-69
2024/01/03 03:02:53;;;;;;;5.78;2.92;;;;;;;-145.63;100.00;61273.97;5066479;28;20341;-68
2024/01/03 03:05:19;;;;;;;3.65;2.80;;;;;;;-145.63;100.00;61273.97;5104866;28;20285;-68
2024/01/03 03:07:45;;;;;;;4.90;2.80;;;;;;;-145.63;100.00;61273.97;5073075;28;20039;-68
2024/01/03 03:10:12;;;;;;;5.25;2.67;;;;;;;-145.63;100.00;61273.97;5075625;28;20209;-68
2024/01/03 03:12:38;;;;;;;4.15;2.25;;;;;;;-145.63;100.00;61273.97;5085632;28;20032;-68
2024/01/03 03:15:07;;;;;;;3.28;2.35;;;;;;;-145.63;100.00;61273.97;5084774;28;20016;-69
2024/01/03 03:17:33;;;;;;;3.67;2.40;;;;;;;-145.63;100.00;61273.97;5065792;28;20088;-68
2024/01/03 03:19:58;;;;;;;3.47;2.15;;;;;;;-145.63;100.00;61273.97;5080793;28;20034;-69
2024/01/03 03:22:24;;;;;;;4.85;2.78;;;;;;;-145.63;100.00;61273.97;5093640;28;20020;-68
2024/01/03 03:24:49;;;;;;;4.80;2.83;;;;;;;-145.63;100.00;61273.97;5078286;28;20033;-69
2024/01/03 03:27:15;;;;;;;6.07;3.20;;;;;;;-145.63;100.00;61273.97;5067454;28;20043;-67
2024/01/03 03:29:41;;;;;;;5.93;2.17;;;;;;;-145.63;100.00;61273.97;5085445;28;20025;-68
2024/01/03 03:32:07;;;;;;;5.03;2.70;;;;;;;-145.63;100.00;61273.97;5067564;28;20516;-69
2024/01/03 03:34:33;;;;;;;4.03;2.47;;;;;;;-145.63;100.00;61273.97;5076620;28;20050;-68
2024/01/03 03:37:01;;;;;;;3.67;2.90;;;;;;;-145.63;100.00;61273.97;5076865;28;20338;-69
2024/01/03 03:39:27;;;;;;;6.90;2.65;;;;;;;-145.63;100.00;61273.97;5050925;28;20327;-69
2024/01/03 03:41:52;;;;;;;3.40;2.00;;;;;;;-145.63;100.00;61273.97;5085648;28;20024;-68
2024/01/03 03:44:18;;;;;;;6.53;2.55;;;;;;;-145.63;100.00;61273.97;5065941;28;20032;-67
2024/01/03 03:46:43;;;;;;;6.95;2.63;;;;;;;-145.63;100.00;61273.97;5078947;28;20012;-68
2024/01/03 03:49:09;;;;;;;5.38;2.80;;;;;;;-145.63;100.00;61273.97;5079248;28;20309;-70
2024/01/03 03:51:35;;;;;;;4.60;2.72;;;;;;;-145.63;100.00;61273.97;5080106;28;20031;-68
2024/01/03 03:54:00;;;;;;;5.85;2.60;;;;;;;-145.63;100.00;61273.97;5065229;28;20040;-68
2024/01/03 03:56:29;;;;;;;7.57;2.97;;;;;;;-145.63;100.00;61273.97;5084938;28;20166;-68
2024/01/03 03:58:56;;;;;;;6.93;2.78;;;;;;;-145.63;100.00;61273.97;5069051;28;20197;-67
2024/01/03 04:01:21;;;;;;;7.25;2.60;;;;;;;-145.63;100.00;61273.97;5075412;28;20019;-68
2024/01/03 04:03:47;;;;;;;6.70;3.08;;;;;;;-145.63;100.00;61273.97;5066555;28;20237;-68
2024/01/03 04:06:15;;;;;;;7.32;2.90;;;;;;;-145.63;100.00;61273.97;5064446;28;20013;-68
2024/01/03 04:08:45;;;;;;;3.97;2.38;;;;;;;-145.63;100.00;61273.97;5083401;28;20028;-70
2024/01/03 04:11:11;;;;;;;5.13;2.90;;;;;;;-145.63;100.00;61273.97;5084314;28;20070;-69
2024/01/03 04:13:38;;;;;;;10.23;3.95;;;;;;;-145.63;100.00;61273.97;5066701;28;20024;-69
2024/01/03 04:16:13;;;;;;;6.45;2.67;;;;;;;-145.63;100.00;61273.97;5058033;28;20017;-67
2024/01/03 04:18:38;;;;;;;3.80;2.10;;;;;;;-145.63;100.00;61273.97;5069526;28;20335;-67
2024/01/03 04:21:06;;;;;;;4.55;2.50;;;;;;;-145.63;100.00;61273.97;5084302;28;20040;-66
2024/01/03 04:23:32;;;;;;;4.85;2.58;;;;;;;-145.63;100.00;61273.97;5064474;28;20021;-66
2024/01/03 04:25:58;;;;;;;5.13;2.78;;;;;;;-145.63;100.00;61273.97;5080655;28;20023;-68
2024/01/03 04:28:24;;;;;;;8.18;3.22;;;;;;;-145.63;100.00;61273.97;5084056;28;20058;-68
2024/01/03 04:30:50;;;;;;;5.07;2.67;;;;;;;-145.63;100.00;61273.97;5077840;28;20031;-68
2024/01/03 04:33:15;;;;;;;5.97;2.90;;;;;;;-145.63;100.00;61273.97;5065794;28;20027;-68
2024/01/03 04:35:41;;;;;;;4.80;2.75;;;;;;;-145.63;100.00;61273.97;5084118;28;20248;-68
2024/01/03 04:38:07;;;;;;;4.93;2.83;;;;;;;-145.63;100.00;61273.97;5067157;28;20025;-67
2024/01/03 04:40:33;;;;;;;5.05;2.80;;;;;;;-145.63;100.00;61273.97;5076128;28;20025;-68
2024/01/03 04:42:59;;;;;;;5.57;2.85;;;;;;;-145.63;100.00;61273.97;5084317;28;20021;-69
2024/01/03 04:45:25;;;;;;;3.60;2.15;;;;;;;-145.63;100.00;61273.97;5081623;28;20017;-67
2024/01/03 04:47:51;;;;;;;4.85;2.70;;;;;;;-145.63;100.00;61273.97;5064151;28;20028;-69
2024/01/03 04:50:17;;;;;;;4.05;2.20;;;;;;;-145.63;100.00;61273.97;5064126;28;20021;-67
2024/01/03 04:52:43;;;;;;;4.20;3.00;;;;;;;-145.63;100.00;61273.97;5083618;28;20017;-67
2024/01/03 04:55:09;;;;;;;3.65;2.22;;;;;;;-145.63;100.00;61273.97;5075029;28;20013;-68
2024/01/03 04:57:35;;;;;;;6.00;2.97;;;;;;;-145.63;100.00;61273.97;5067966;28;20030;-68
2024/01/03 05:00:02;;;;;;;3.75;2.15;;;;;;;-145.63;100.00;61273.97;5083671;28;20299;-68
2024/01/03 05:02:31;;;;;;;5.13;2.10;;;;;;;-145.63;100.00;61273.97;5063838;28;20017;-67
2024/01/03 05:04:56;;;;;;;6.55;2.80;;;;;;;-145.63;100.00;61273.97;5063666;28;20170;-68
2024/01/03 05:07:24;;;;;;;5.68;2.90;;;;;;;-145.63;100.00;61273.97;5074075;28;20046;-67
2024/01/03 05:09:49;;;;;;;4.47;2.85;;;;;;;-145.63;100.00;61273.97;5083565;28;20017;-67
2024/01/03 05:12:15;;;;;;;2.53;1.80;;;;;;;-145.63;100.00;61273.97;5083288;28;20020;-67
2024/01/03 05:14:41;;;;;;;5.70;2.65;;;;;;;-145.63;100.00;61273.97;5083164;28;20035;-67
2024/01/03 05:17:06;;;;;;;6.18;2.35;;;;;;;-145.63;100.00;61273.97;5066094;28;20021;-67
2024/01/03 05:19:32;;;;;;;6.13;2.60;;;;;;;-145.63;100.00;61273.97;5075146;28;20413;-68
2024/01/03 05:21:58;;;;;;;7.32;2.50;;;;;;;-145.63;100.00;61273.97;5076440;28;20032;-68
2024/01/03 05:24:23;;;;;;;5.05;2.70;;;;;;;-145.63;100.00;61273.97;5065592;28;20028;-68
2024/01/03 05:26:49;;;;;;;7.25;2.65;;;;;;;-145.63;100.00;61273.97;5083180;28;20312;-68
2024/01/03 05:29:14;;;;;;;5.07;2.13;;;;;;;-145.63;100.00;61273.97;5065519;28;20020;-68
2024/01/03 05:31:40;;;;;;;4.15;2.35;;;;;;;-145.63;100.00;61273.97;5076204;28;20020;-67
2024/01/03 05:34:07;;;;;;;8.80;2.33;;;;;;;-145.63;100.00;61273.97;5075093;28;20032;-68
2024/01/03 05:36:32;;;;;;;9.55;2.75;;;;;;;-145.63;100.00;61273.97;5062755;28;20088;-67
2024/01/03 05:38:58;;;;;;;3.53;2.38;;;;;;;-145.63;100.00;61273.97;5078575;28;20071;-67
2024/01/03 05:41:24;;;;;;;4.63;2.70;;;;;;;-145.63;100.00;61273.97;5081744;28;20273;-68
2024/01/03 05:43:49;;;;;;;6.00;2.55;;;;;;;-145.63;100.00;61273.97;5068705;28;20040;-67
2024/01/03 05:46:15;;;;;;;4.82;2.58;;;;;;;-145.63;100.00;61273.97;5062964;28;20056;-67
2024/01/03 05:48:42;;;;;;;5.07;2.70;;;;;;;-145.63;100.00;61273.97;5061357;28;20035;-68
2024/01/03 05:51:09;;;;;;;5.25;3.22;;;;;;;-145.63;100.00;61273.97;5041476;28;20333;-68
2024/01/03 05:53:34;;;;;;;7.28;2.53;;;;;;;-145.63;100.00;61273.97;5042721;28;20049;-69
2024/01/03 05:56:00;;;;;;;5.88;2.83;;;;;;;-145.63;100.00;61273.97;5040337;28;20016;-69
2024/01/03 05:58:26;;;;;;;5.75;3.00;;;;;;;-145.63;100.00;61273.97;5062343;28;20017;-68
2024/01/03 06:00:52;;;;;;;3.90;2.58;;;;;;;-145.63;100.00;61273.97;5044434;28;20036;-68
2024/01/03 06:03:18;;;;;;;3.63;2.53;;;;;;;-145.63;100.00;61273.97;5044929;28;20020;-67
2024/01/03 06:05:43;;;;;;;7.07;3.33;;;;;;;-145.63;100.00;61273.97;5044757;28;20032;-67
2024/01/03 06:08:09;;;;;;;6.22;3.13;;;;;;;-145.63;100.00;61273.97;5064082;28;20055;-68
2024/01/03 06:10:35;;;;;;;4.82;2.45;;;;;;;-145.63;100.00;61273.97;5062118;28;20088;-68
2024/01/03 06:13:00;;;;;;;4.03;2.53;;;;;;;-145.63;100.00;61273.97;5062317;28;20025;-68
2024/01/03 06:15:26;;;;;;;3.20;2.10;;;;;;;-145.63;100.00;61273.97;5064663;28;20029;-69
2024/01/03 06:17:51;;;;;;;5.93;3.25;;;;;;;-145.63;100.00;61273.97;5082601;28;20309;-67
2024/01/03 06:20:17;;;;;;;6.18;2.83;;;;;;;-145.63;100.00;61273.97;5064955;28;20059;-68
2024/01/03 06:22:44;;;;;;;3.20;2.42;;;;;;;-145.63;100.00;61273.97;5062066;28;20285;-69
2024/01/03 06:25:09;;;;;;;5.50;2.75;;;;;;;-145.63;100.00;61273.97;5062280;28;20028;-67
2024/01/03 06:27:35;;;;;;;5.22;2.65;;;;;;;-145.63;100.00;61273.97;5062343;28;20253;-67
2024/01/03 06:30:00;;;;;;;4.57;2.78;;;;;;;-145.63;100.00;61273.97;5066695;28;20217;-69
2024/01/03 06:32:28;;;;;;;5.03;2.60;;;;;;;-145.63;100.00;61273.97;5048209;28;20021;-69
2024/01/03 06:34:54;;;;;;;6.55;2.72;;;;;;;-145.63;100.00;61273.97;5065152;28;20368;-69
2024/01/03 06:37:20;;;;;;;5.47;2.33;;;;;;;-145.63;100.00;61273.97;5064895;28;20040;-68
2024/01/03 06:39:45;;;;;;;7.85;3.28;;;;;;;-145.63;100.00;61273.97;5066378;28;20052;-68
2024/01/03 06:42:11;;;;;;;3.20;2.30;;;;;;;-145.63;100.00;61273.97;5066357;28;20032;-71
2024/01/03 06:44:36;;;;;;;5.00;2.90;;;;;;;-145.63;100.00;61273.97;5065943;28;20017;-67
2024/01/03 06:47:02;;;;;;;5.25;2.97;;;;;;;-145.63;100.00;61273.97;5066333;28;20092;-67
2024/01/03 06:49:28;;;;;;;4.93;2.63;;;;;;;-145.63;100.00;61273.97;5047964;28;20024;-68
2024/01/03 06:51:55;;;;;;;6.90;3.28;;;;;;;-145.63;100.00;61273.97;5065846;28;20195;-69
2024/01/03 06:54:21;;;;;;;4.78;2.60;;;;;;;-145.63;100.00;61273.97;5065859;28;20013;-68
2024/01/03 06:56:47;;;;;;;7.57;2.75;;;;;;;-145.63;100.00;61273.97;5065972;28;20017;-69
2024/01/03 06:59:12;;;;;;;4.50;2.58;;;;;;;-145.63;100.00;61273.97;5065742;28;20118;-70
2024/01/03 07:01:38;;;;;;;5.18;3.40;;;;;;;-145.63;100.00;61273.97;5047889;28;20079;-68
2024/01/03 07:04:04;;;;;;;4.03;2.30;;;;;;;-145.63;100.00;61273.97;5065994;28;20329;-68
2024/01/03 07:06:29;;;;;;;5.25;2.88;;;;;;;-145.63;100.00;61273.97;5065275;28;20032;-68
2024/01/03 07:08:55;;;;;;;5.18;3.13;;;;;;;-145.63;100.00;61273.97;5065681;28;20025;-69
2024/01/03 07:11:21;;;;;;;6.70;2.80;;;;;;;-145.63;100.00;61273.97;5065405;28;20017;-67
2024/01/03 07:13:46;;;;;;;5.00;2.63;;;;;;;-145.63;100.00;61273.97;5081048;28;20017;-67
2024/01/03 07:16:12;;;;;;;5.40;2.83;;;;;;;-145.63;100.00;61273.97;5048339;28;20301;-68
2024/01/03 07:18:37;;;;;;;5.07;2.70;;;;;;;-145.63;100.00;61273.97;5065464;28;20409;-67
2024/01/03 07:21:04;;;;;;;6.18;3.42;;;;;;;-145.63;100.00;61273.97;5065666;28;20024;-67
2024/01/03 07:23:30;;;;;;;5.35;3.00;;;;;;;-145.63;100.00;61273.97;5065244;28;20067;-69
2024/01/03 07:25:55;;;;;;;5.38;2.95;;;;;;;-145.63;100.00;61273.97;5065564;28;20025;-68
2024/01/03 07:28:21;;;;;;;4.72;2.80;;;;;;;-145.63;100.00;61273.97;5065370;28;20016;-68
2024/01/03 07:30:46;;;;;;;4.22;2.63;;;;;;;-145.63;100.00;61273.97;5069736;28;20036;-68
2024/01/03 07:33:12;;;;;;;6.55;3.50;;;;;;;-145.63;100.00;61273.97;5085406;28;20016;-67
2024/01/03 07:35:38;;;;;;;6.18;3.30;;;;;;;-145.63;100.00;61273.97;5065212;28;20074;-69
2024/01/03 07:38:05;;;;;;;5.57;3.17;;;;;;;-145.63;100.00;61273.97;5032867;28;20261;-67
2024/01/03 07:40:31;;;;;;;5.47;3.28;;;;;;;-145.63;100.00;61273.97;5055318;28;20031;-69
2024/01/03 07:42:57;;;;;;;4.80;2.80;;;;;;;-145.63;100.00;61273.97;5059513;28;20263;-69
2024/01/03 07:45:22;;;;;;;6.63;3.28;;;;;;;-145.63;100.00;61273.97;5046203;28;20017;-67
2024/01/03 07:47:48;;;;;;;6.07;2.80;;;;;;;-145.63;100.00;61273.97;5064142;28;20237;-67
2024/01/03 07:50:14;;;;;;;7.35;3.45;;;;;;;-145.63;100.00;61273.97;5065074;28;20029;-68
2024/01/03 07:52:41;;;;;;;5.82;3.70;;;;;;;-145.63;100.00;61273.97;5053678;28;20092;-68
2024/01/03 07:55:07;;;;;;;6.32;3.25;;;;;;;-145.63;100.00;61273.97;5052195;28;20092;-67
2024/01/03 07:57:33;;;;;;;8.82;3.60;;;;;;;-145.63;100.00;61273.97;5064888;28;20021;-67
2024/01/03 07:59:59;;;;;;;8.55;3.50;;;;;;;-145.63;100.00;61273.97;5064989;28;20033;-69
2024/01/03 08:02:25;;;;;;;4.80;3.40;;;;;;;-145.63;100.00;61273.97;5047079;28;20021;-67
2024/01/03 08:04:51;;;;;;;6.60;3.50;;;;;;;-145.63;100.00;61273.97;5057484;28;20056;-70
2024/01/03 08:07:16;;;;;;;7.22;3.50;;;;;;;-145.63;100.00;61273.97;5063999;28;20017;-68
2024/01/03 08:09:42;;;;;;;6.28;3.45;;;;;;;-145.63;100.00;61273.97;5064651;28;20078;-69
2024/01/03 08:12:09;;;;;;;5.90;3.63;;;;;;;-145.63;100.00;61273.97;5064544;28;20029;-68
2024/01/03 08:14:35;;;;;;;8.10;3.58;;;;;;;-145.63;100.00;61273.97;5064574;28;20229;-67
2024/01/03 08:17:02;;;;;;;5.43;3.40;;;;;;;-145.63;100.00;61273.97;5050413;28;20021;-69
2024/01/03 08:19:28;;;;;;;7.30;3.75;;;;;;;-145.63;100.00;61273.97;5054229;28;20143;-68
2024/01/03 08:21:54;;;;;;;6.43;4.22;;;;;;;-145.63;100.00;61273.97;5059759;28;20025;-69
2024/01/03 08:24:20;;;;;;;7.85;4.03;;;;;;;-145.63;100.00;61273.97;5044576;28;20044;-69
2024/01/03 08:26:47;;;;;;;7.25;4.00;;;;;;;-145.63;100.00;61273.97;5064478;28;20013;-68
2024/01/03 08:29:13;;;;;;;6.55;3.65;;;;;;;-145.63;100.00;61273.97;5048863;28;20025;-67
2024/01/03 08:31:39;;;;;;;10.88;3.97;;;;;;;-145.63;100.00;61273.97;5055437;28;20047;-68
2024/01/03 08:34:04;;;;;;;6.25;3.70;;;;;;;-145.63;100.00;61273.97;5058047;28;20088;-68
2024/01/03 08:36:40;;;;;;;10.20;4.68;;;;;;;-145.63;100.00;61273.97;5045297;28;20179;-70
2024/01/03 08:39:07;;;;;;;8.85;4.15;;;;;;;-145.63;100.00;61273.97;5064229;28;20024;-68
2024/01/03 08:41:33;;;;;;;8.07;4.65;;;;;;;-145.63;100.00;61273.97;5045573;28;20226;-67
2024/01/03 08:43:59;;;;;;;11.27;4.97;;;;;;;-145.63;100.00;61273.97;5057848;28;20025;-68
2024/01/03 08:46:30;;;;;;;7.18;4.78;;;;;;;-145.63;100.00;61273.97;5055062;28;20026;-67
2024/01/03 08:48:57;;;;;;;7.97;5.07;;;;;;;-145.63;100.00;61273.97;5051406;28;20220;-70
2024/01/03 08:51:23;;;;;;;10.43;5.45;;;;;;;-145.63;100.00;61273.97;5062782;28;20017;-68
2024/01/03 08:53:49;;;;;;;8.05;5.00;;;;;;;-145.63;100.00;61273.97;5064068;28;20029;-69
2024/01/03 08:56:17;;;;;;;7.10;4.65;;;;;;;-145.63;100.00;61273.97;5063733;28;20099;-70
2024/01/03 08:58:44;;;;;;;6.95;4.70;;;;;;;-145.63;100.00;61273.97;5052281;28;20052;-69
2024/01/03 09:01:20;;;;;;;7.13;4.57;;;;;;;-145.63;100.00;61273.97;5057157;28;20074;-67
2024/01/03 09:03:46;;;;;;;8.18;5.25;;;;;;;-145.63;100.00;61273.97;5080285;28;20024;-69
2024/01/03 09:06:21;;;;;;;13.80;6.25;;;;;;;-145.63;100.00;61273.97;5063789;28;20325;-69
2024/01/03 09:08:50;;;;;;;8.25;5.63;;;;;;;-145.63;100.00;61273.97;5045929;28;20029;-68
2024/01/03 09:11:18;;;;;;;8.45;5.47;;;;;;;-145.63;100.00;61273.97;5034328;28;20025;-68
2024/01/03 09:13:48;;;;;;;10.35;5.80;;;;;;;-145.63;100.00;61273.97;5063674;28;20025;-69
2024/01/03 09:16:17;;;;;;;10.43;5.03;;;;;;;-145.63;100.00;61273.97;5063318;28;20021;-69
2024/01/03 09:18:43;;;;;;;9.43;4.90;;;;;;;-145.63;100.00;61273.97;5060175;28;20322;-69
2024/01/03 09:21:09;;;;;;;10.25;5.63;;;;;;;-145.63;100.00;61273.97;5043142;28;20112;-68
2024/01/03 09:23:34;;;;;;;12.30;5.68;;;;;;;-145.63;100.00;61273.97;5043452;28;20025;-67
2024/01/03 09:26:04;;;;;;;10.38;5.90;;;;;;;-145.63;100.00;61273.97;5031855;28;20080;-68
2024/01/03 09:28:29;;;;;;;10.80;6.00;;;;;;;-145.63;100.00;61273.97;5050988;28;20029;-69
2024/01/03 09:30:55;;;;;;;10.02;5.68;;;;;;;-145.63;100.00;61273.97;5058840;28;20029;-68
2024/01/03 09:33:21;;;;;;;12.02;5.70;;;;;;;-145.63;100.00;61273.97;5043358;28;20028;-69
2024/01/03 09:35:46;;;;;;;12.35;6.47;;;;;;;-145.63;100.00;61273.97;5062645;28;20044;-68
2024/01/03 09:38:13;;;;;;;8.98;5.10;;;;;;;-145.63;100.00;61273.97;5048233;28;20033;-67
2024/01/03 09:40:43;;;;;;;8.63;5.90;;;;;;;-145.63;100.00;61273.97;5052839;28;20029;-68
2024/01/03 09:43:12;;;;;;;10.23;6.13;;;;;;;-145.63;100.00;61273.97;5056861;28;20022;-69
2024/01/03 09:45:38;;;;;;;10.63;6.07;;;;;;;-145.63;100.00;61273.97;5027039;28;20037;-68
2024/01/03 09:48:04;;;;;;;13.63;6.43;;;;;;;-145.63;100.00;61273.97;5045281;28;20032;-68
2024/01/03 09:50:31;;;;;;;20.55;10.60;;;;;;;-145.63;100.00;61273.97;5064909;28;20025;-69
2024/01/03 09:52:57;;;;;;;23.42;11.20;;;;;;;-145.63;100.00;61273.97;5050217;28;20025;-68
2024/01/03 09:55:23;;;;;;;22.05;8.38;;;;;;;-145.63;100.00;61273.97;5050706;28;20449;-67
2024/01/03 09:57:52;;;;;;;11.90;6.93;;;;;;;-145.63;100.00;61273.97;5062814;28;20021;-68
2024/01/03 10:00:19;;;;;;;14.63;7.40;;;;;;;-145.63;100.00;61273.97;5062903;28;20020;-69
2024/01/03 10:02:47;;;;;;;11.13;6.63;;;;;;;-145.63;100.00;61273.97;5081592;28;20035;-69
2024/01/03 10:05:22;;;;;;;15.55;6.70;;;;;;;-145.63;100.00;61273.97;5067889;28;20108;-69
2024/01/03 10:07:48;;;;;;;9.02;6.28;;;;;;;-145.63;100.00;61273.97;5062469;28;20025;-68
2024/01/03 10:10:31;;;;;;;12.35;6.50;;;;;;;-145.63;100.00;61273.97;5056138;28;20033;-68
2024/01/03 10:13:17;;;;;;;10.45;6.30;;;;;;;-145.63;100.00;61273.97;5079791;28;20091;-68
2024/01/03 10:15:45;;;;;;;13.00;6.75;;;;;;;-145.63;100.00;61273.97;5080102;28;20016;-69
2024/01/03 10:18:14;;;;;;;12.52;6.40;;;;;;;-145.63;100.00;61273.97;5062681;28;20513;-69
2024/01/03 10:20:40;;;;;;;12.82;6.63;;;;;;;-145.63;100.00;61273.97;5044098;28;20202;-69
2024/01/03 10:23:07;;;;;;;15.77;7.15;;;;;;;-145.63;100.00;61273.97;5056224;28;20021;-68
2024/01/03 10:25:33;;;;;;;10.63;6.50;;;;;;;-145.63;100.00;61273.97;5053216;28;20109;-68
2024/01/03 10:28:00;;;;;;;13.60;6.97;;;;;;;-145.63;100.00;61273.97;5046660;28;20095;-69
2024/01/03 10:30:26;;;;;;;8.82;5.65;;;;;;;-145.63;100.00;61273.97;5062100;28;20025;-68
2024/01/03 10:33:01;;;;;;;9.18;5.88;;;;;;;-145.63;100.00;61273.97;5042287;28;20033;-68
2024/01/03 10:35:35;;;;;;;13.55;6.22;;;;;;;-145.63;100.00;61273.97;5058448;28;20064;-69
2024/01/03 10:38:01;;;;;;;14.48;6.93;;;;;;;-145.63;100.00;61273.97;5049715;28;20067;-69
2024/01/03 10:40:32;;;;;;;12.35;5.70;;;;;;;-145.63;100.00;61273.97;5041134;28;20257;-68
2024/01/03 10:42:59;;;;;;;11.25;6.22;;;;;;;-145.63;100.00;61273.97;5078295;28;20131;-68
2024/01/03 10:45:25;;;;;;;12.57;6.68;;;;;;;-145.63;100.00;61273.97;5062301;28;20021;-69
2024/01/03 10:47:52;;;;;;;13.13;6.78;;;;;;;-145.63;100.00;61273.97;5042471;28;20025;-68
2024/01/03 10:50:19;;;;;;;11.85;6.50;;;;;;;-145.63;100.00;61273.97;5057190;28;20021;-69
2024/01/03 10:52:45;;;;;;;10.65;5.85;;;;;;;-145.63;100.00;61273.97;5051731;28;20049;-68
2024/01/03 10:55:20;;;;;;;10.60;6.47;;;;;;;-145.63;100.00;61273.97;5048522;28;20052;-69
2024/01/03 10:58:03;;;;;;;12.73;7.18;;;;;;;-145.63;100.00;61273.97;5062307;28;20088;-67
2024/01/03 11:00:54;;;;;;;14.27;7.03;;;;;;;-145.63;100.00;61273.97;5062074;28;20021;-70
2024/01/03 11:03:37;;;;;;;11.35;7.45;;;;;;;-145.63;100.00;61273.97;5041872;28;20092;-68
2024/01/03 11:06:09;;;;;;;15.05;6.57;;;;;;;-145.63;100.00;61273.97;5042109;28;20030;-68